Map

Track Data

SID SEASON NUMBER BASIN SUBBASIN NAME ISO_TIME NATURE LAT LON WMO_WIND WMO_PRES WMO_AGENCY TRACK_TYPE DIST2LAND LANDFALL IFLAG USA_AGENCY USA_ATCF_ID USA_LAT USA_LON USA_RECORD USA_STATUS USA_WIND USA_PRES USA_SSHS USA_R34_NE USA_R34_SE USA_R34_SW USA_R34_NW USA_R50_NE USA_R50_SE USA_R50_SW USA_R50_NW USA_R64_NE USA_R64_SE USA_R64_SW USA_R64_NW USA_POCI USA_ROCI USA_RMW USA_EYE TOKYO_LAT TOKYO_LON TOKYO_GRADE TOKYO_WIND TOKYO_PRES TOKYO_R50_DIR TOKYO_R50_LONG TOKYO_R50_SHORT TOKYO_R30_DIR TOKYO_R30_LONG TOKYO_R30_SHORT TOKYO_LAND CMA_LAT CMA_LON CMA_CAT CMA_WIND CMA_PRES HKO_LAT HKO_LON HKO_CAT HKO_WIND HKO_PRES NEWDELHI_LAT NEWDELHI_LON NEWDELHI_GRADE NEWDELHI_WIND NEWDELHI_PRES NEWDELHI_CI NEWDELHI_DP NEWDELHI_POCI REUNION_LAT REUNION_LON REUNION_TYPE REUNION_WIND REUNION_PRES REUNION_TNUM REUNION_CI REUNION_RMW REUNION_R34_NE REUNION_R34_SE REUNION_R34_SW REUNION_R34_NW REUNION_R50_NE REUNION_R50_SE REUNION_R50_SW REUNION_R50_NW REUNION_R64_NE REUNION_R64_SE REUNION_R64_SW REUNION_R64_NW BOM_LAT BOM_LON BOM_TYPE BOM_WIND BOM_PRES BOM_TNUM BOM_CI BOM_RMW BOM_R34_NE BOM_R34_SE BOM_R34_SW BOM_R34_NW BOM_R50_NE BOM_R50_SE BOM_R50_SW BOM_R50_NW BOM_R64_NE BOM_R64_SE BOM_R64_SW BOM_R64_NW BOM_ROCI BOM_POCI BOM_EYE BOM_POS_METHOD BOM_PRES_METHOD NADI_LAT NADI_LON NADI_CAT NADI_WIND NADI_PRES WELLINGTON_LAT WELLINGTON_LON WELLINGTON_WIND WELLINGTON_PRES DS824_LAT DS824_LON DS824_STAGE DS824_WIND DS824_PRES TD9636_LAT TD9636_LON TD9636_STAGE TD9636_WIND TD9636_PRES TD9635_LAT TD9635_LON TD9635_WIND TD9635_PRES TD9635_ROCI NEUMANN_LAT NEUMANN_LON NEUMANN_CLASS NEUMANN_WIND NEUMANN_PRES MLC_LAT MLC_LON MLC_CLASS MLC_WIND MLC_PRES USA_GUST BOM_GUST BOM_GUST_PER REUNION_GUST REUNION_GUST_PER USA_SEAHGT USA_SEARAD_NE USA_SEARAD_SE USA_SEARAD_SW USA_SEARAD_NW STORM_SPEED STORM_DIR
1969223N26288 1969 54 NA NA BLANCHE 1969-08-10 18:00:00 TS 26.3000 -71.7000 30 hurdat_atl main 585 585 O_____________ hurdat_atl AL071969 26.3000 -71.7000 TD 30 -1 18 0
1969223N26288 1969 54 NA NA BLANCHE 1969-08-10 21:00:00 TS 27.1750 -71.7003 main 669 669 P_____________ AL071969 27.1750 -71.7003 TD 32 -1 18 1
1969223N26288 1969 54 NA NA BLANCHE 1969-08-11 00:00:00 TS 28.1000 -71.7000 35 hurdat_atl main 709 709 O_____________ hurdat_atl AL071969 28.1000 -71.7000 TS 35 0 19 0
1969223N26288 1969 54 NA NA BLANCHE 1969-08-11 03:00:00 TS 29.1125 -71.6866 main 766 688 P_____________ AL071969 29.1125 -71.6866 TS 37 0 21 2
1969223N26288 1969 54 NA NA BLANCHE 1969-08-11 06:00:00 TS 30.2000 -71.6000 40 hurdat_atl main 679 607 O_____________ hurdat_atl AL071969 30.2000 -71.6000 TS 40 0 22 6
1969223N26288 1969 54 NA NA BLANCHE 1969-08-11 09:00:00 TS 31.2823 -71.4300 main 607 553 P_____________ AL071969 31.2823 -71.4300 TS 45 0 23 11
1969223N26288 1969 54 NA NA BLANCHE 1969-08-11 12:00:00 TS 32.5000 -71.1000 50 hurdat_atl main 546 496 O_____________ hurdat_atl AL071969 32.5000 -71.1000 TS 50 0 27 15
1969223N26288 1969 54 NA NA BLANCHE 1969-08-11 15:00:00 TS 33.9097 -70.6018 main 493 484 P_____________ AL071969 33.9097 -70.6018 TS 60 0 32 18
1969223N26288 1969 54 NA NA BLANCHE 1969-08-11 18:00:00 TS 35.5000 -69.9000 70 997 hurdat_atl main 505 504 O_____________ hurdat_atl AL071969 35.5000 -69.9000 HU 70 997 1 36 20
1969223N26288 1969 54 NA NA BLANCHE 1969-08-11 21:00:00 TS 37.2474 -69.1019 main 497 350 P_____________ AL071969 37.2474 -69.1019 HU 72 1 38 23
1969223N26288 1969 54 NA NA BLANCHE 1969-08-12 00:00:00 TS 39.0000 -68.0000 75 hurdat_atl main 344 301 O_____________ hurdat_atl AL071969 39.0000 -68.0000 HU 75 1 39 31
1969223N26288 1969 54 NA NA BLANCHE 1969-08-12 03:00:00 TS 40.5879 -66.5270 main 316 180 P_____________ AL071969 40.5879 -66.5270 HU 75 1 39 40
1969223N26288 1969 54 NA NA BLANCHE 1969-08-12 06:00:00 TS 42.0000 -64.7000 75 hurdat_atl main 173 147 O_____________ hurdat_atl AL071969 42.0000 -64.7000 HU 75 1 39 47
1969223N26288 1969 54 NA NA BLANCHE 1969-08-12 09:00:00 TS 43.2418 -62.7067 main 151 115 P_____________ AL071969 43.2418 -62.7067 HU 72 1 39 54
1969223N26288 1969 54 NA NA BLANCHE 1969-08-12 12:00:00 ET 44.3000 -60.4000 70 996 hurdat_atl main 114 108 O_____________ hurdat_atl AL071969 44.3000 -60.4000 EX 70 996 -4 41 61
1969223N26288 1969 54 NA NA BLANCHE 1969-08-12 15:00:00 ET 45.2371 -57.7654 main 190 99 P_____________ AL071969 45.2371 -57.7654 EX 67 -4 42 66
1969223N26288 1969 54 NA NA BLANCHE 1969-08-12 18:00:00 ET 46.0000 -54.9000 65 hurdat_atl main 103 23 O_____________ hurdat_atl AL071969 46.0000 -54.9000 EX 65 -4 42 71
1969223N26288 1969 54 NA NA BLANCHE 1969-08-12 21:00:00 ET 46.6411 -51.9840 main 79 79 P_____________ AL071969 46.6411 -51.9840 EX 60 -4 42 75
1969223N26288 1969 54 NA NA BLANCHE 1969-08-13 00:00:00 ET 47.1000 -49.0000 55 hurdat_atl main 273 273 O_____________ hurdat_atl AL071969 47.1000 -49.0000 EX 55 -4 42 80
1969223N26288 1969 54 NA NA BLANCHE 1969-08-13 03:00:00 ET 47.3803 -45.9277 main 501 501 P_____________ AL071969 47.3803 -45.9277 EX 47 -4 41 84
1969223N26288 1969 54 NA NA BLANCHE 1969-08-13 06:00:00 ET 47.5000 -43.0000 40 hurdat_atl main 717 717 O_____________ hurdat_atl AL071969 47.5000 -43.0000 EX 40 -4 38 87
1969223N26288 1969 54 NA NA BLANCHE 1969-08-13 09:00:00 ET 47.5631 -40.3132 main 918 918 P_____________ AL071969 47.5631 -40.3132 EX 37 -4 34 90
1969223N26288 1969 54 NA NA BLANCHE 1969-08-13 12:00:00 ET 47.5000 -38.0000 35 1008 hurdat_atl main 1090 1090 O_____________ hurdat_atl AL071969 47.5000 -38.0000 EX 35 1008 -4 28 96
1969223N26288 1969 54 NA NA BLANCHE 1969-08-13 15:00:00 ET 47.2415 -36.1329 main 1235 1235 P_____________ AL071969 47.2415 -36.1329 EX 32 1008 -4 24 102
1969223N26288 1969 54 NA NA BLANCHE 1969-08-13 18:00:00 ET 47.0000 -34.5000 30 1009 hurdat_atl main 1358 1358 O_____________ hurdat_atl AL071969 47.0000 -34.5000 EX 30 1009 -4 23 96
1969223N26288 1969 54 NA NA BLANCHE 1969-08-13 21:00:00 ET 46.9973 -32.7573 main 1485 1485 P_____________ AL071969 46.9973 -32.7573 EX 30 1008 -4 24 90
1969223N26288 1969 54 NA NA BLANCHE 1969-08-14 00:00:00 ET 47.0000 -31.0000 30 1008 hurdat_atl main 1569 1468 O_____________ hurdat_atl AL071969 47.0000 -31.0000 EX 30 1008 -4 23 92
1969223N26288 1969 54 NA NA BLANCHE 1969-08-14 03:00:00 ET 46.9303 -29.3407 main 1461 1372 P_____________ AL071969 46.9303 -29.3407 EX 30 1008 -4 24 102
1969223N26288 1969 54 NA NA BLANCHE 1969-08-14 06:00:00 ET 46.5000 -27.5000 30 1008 hurdat_atl main 1366 1302 O_____________ hurdat_atl AL071969 46.5000 -27.5000 EX 30 1008 -4 31 119
1969223N26288 1969 54 NA NA BLANCHE 1969-08-14 09:00:00 ET 45.4337 -25.3577 main 1303 1113 P_____________ AL071969 45.4337 -25.3577 EX 27 1009 -4 40 128
1969223N26288 1969 54 NA NA BLANCHE 1969-08-14 12:00:00 ET 44.0000 -23.0000 25 1010 hurdat_atl main 1105 919 O_____________ hurdat_atl AL071969 44.0000 -23.0000 EX 25 1010 -4 45 130
1969223N26288 1969 54 NA NA BLANCHE 1969-08-14 15:00:00 ET 42.5119 -20.5082 main 912 751 P_____________ AL071969 42.5119 -20.5082 EX 25 1010 -4 47 129
1969223N26288 1969 54 NA NA BLANCHE 1969-08-14 18:00:00 ET 41.0000 -18.0000 25 1011 hurdat_atl main 747 O_____________ hurdat_atl AL071969 41.0000 -18.0000 EX 25 1011 -4 48 129

About IBTrACS Database

This database is a web-friendly format of International Best Track Archive for Climate Stewardship (IBTrACS), a global best track data archive curated by NOAA dating back to 1842.

Updated: 2022-05-24